Time;durP1;ratioP1;P1;durP2;ratioP2;P2;SDS_P1;SDS_P2;PMS_P1;PMS_P2;Temp;Humidity;BMP_temperature;BMP_pressure;BME280_temperature;BME280_humidity;BME280_pressure;Samples;Min_cycle;Max_cycle;Signal;HPM_P1;HPM_P2
2023/12/18 00:01:43;;;;;;;15.13;9.55;;;;;;;4.35;99.67;103213.41;5114606;28;20453;-59
2023/12/18 00:04:09;;;;;;;14.05;9.30;;;;;;;4.35;99.29;103211.63;5098420;28;20073;-59
2023/12/18 00:06:37;;;;;;;13.73;8.43;;;;;;;4.38;99.50;103211.63;5115130;28;20490;-59
2023/12/18 00:09:02;;;;;;;12.90;8.52;;;;;;;4.42;99.49;103208.16;5114203;28;20023;-59
2023/12/18 00:11:28;;;;;;;20.60;8.77;;;;;;;4.41;99.55;103208.13;5098333;27;20186;-59
2023/12/18 00:13:53;;;;;;;21.83;9.80;;;;;;;4.48;99.46;103204.63;5098649;27;20054;-59
2023/12/18 00:16:18;;;;;;;19.02;9.95;;;;;;;4.51;99.60;103215.19;5111353;28;20055;-59
2023/12/18 00:18:44;;;;;;;12.27;7.82;;;;;;;4.60;99.56;103223.09;5096142;28;20387;-59
2023/12/18 00:21:09;;;;;;;17.58;10.52;;;;;;;4.57;100.00;103211.66;5095792;28;20016;-59
2023/12/18 00:23:34;;;;;;;14.55;8.10;;;;;;;4.71;98.95;103202.00;5095722;28;20015;-59
2023/12/18 00:26:00;;;;;;;17.20;9.65;;;;;;;4.60;99.03;103188.81;5079214;28;20031;-59
2023/12/18 00:28:25;;;;;;;18.27;9.52;;;;;;;4.64;100.00;103193.19;5114068;28;20534;-59
2023/12/18 00:30:51;;;;;;;14.45;10.63;;;;;;;4.69;100.00;103190.56;5114191;28;20029;-59
2023/12/18 00:33:16;;;;;;;19.30;9.93;;;;;;;4.70;99.63;103187.91;5113666;28;20023;-59
2023/12/18 00:35:41;;;;;;;16.15;9.90;;;;;;;4.76;99.75;103190.56;5095663;28;20486;-59
2023/12/18 00:38:09;;;;;;;17.30;9.88;;;;;;;4.68;100.00;103181.78;5096600;28;20027;-59
2023/12/18 00:40:34;;;;;;;20.52;11.05;;;;;;;4.82;99.91;103187.03;5113949;28;20019;-59
2023/12/18 00:43:02;;;;;;;11.85;9.32;;;;;;;4.77;100.00;103192.31;5113540;28;20027;-59
2023/12/18 00:45:27;;;;;;;19.42;10.13;;;;;;;4.87;99.81;103190.53;5114010;28;20027;-59
2023/12/18 00:47:53;;;;;;;15.50;9.98;;;;;;;4.89;100.00;103193.19;5113580;28;20036;-59
2023/12/18 00:50:18;;;;;;;14.40;9.38;;;;;;;4.85;100.00;103189.66;5095481;28;20420;-59
2023/12/18 00:52:44;;;;;;;20.77;10.57;;;;;;;4.79;100.00;103187.03;5095258;28;20020;-59
2023/12/18 00:55:09;;;;;;;19.25;11.05;;;;;;;4.81;100.00;103185.28;5113128;28;20042;-59
2023/12/18 00:57:34;;;;;;;15.38;10.68;;;;;;;4.81;100.00;103189.69;5113622;28;20114;-59
2023/12/18 01:00:00;;;;;;;21.00;11.27;;;;;;;4.85;100.00;103194.06;5113453;28;20471;-58
2023/12/18 01:02:25;;;;;;;17.38;9.50;;;;;;;4.87;100.00;103187.91;5113045;28;20023;-59
2023/12/18 01:04:51;;;;;;;19.73;10.80;;;;;;;4.93;100.00;103193.16;5095096;28;20349;-59
2023/12/18 01:07:19;;;;;;;19.73;11.55;;;;;;;4.83;100.00;103172.97;5097486;27;20105;-59
2023/12/18 01:09:44;;;;;;;17.25;10.63;;;;;;;4.88;100.00;103175.59;5096000;27;20557;-59
2023/12/18 01:12:09;;;;;;;15.50;10.50;;;;;;;4.99;100.00;103163.28;5094570;28;20023;-59
2023/12/18 01:14:35;;;;;;;13.13;9.80;;;;;;;4.94;100.00;103173.84;5116909;27;20027;-58
2023/12/18 01:17:00;;;;;;;20.08;11.07;;;;;;;4.99;100.00;103177.34;5095078;28;20019;-59
2023/12/18 01:19:26;;;;;;;29.38;11.80;;;;;;;4.91;100.00;103179.13;5096718;28;20102;-58
2023/12/18 01:21:51;;;;;;;21.25;10.93;;;;;;;4.94;100.00;103172.94;5112504;28;20715;-58
2023/12/18 01:24:17;;;;;;;19.23;11.25;;;;;;;4.96;100.00;103158.00;5093837;28;20011;-58
2023/12/18 01:26:46;;;;;;;20.75;12.23;;;;;;;4.94;100.00;103165.03;5094866;27;20027;-58
2023/12/18 01:29:12;;;;;;;20.40;11.93;;;;;;;4.94;100.00;103157.13;5114182;27;20031;-58
2023/12/18 01:31:38;;;;;;;20.40;11.80;;;;;;;4.93;100.00;103172.06;5114695;27;20080;-58
2023/12/18 01:34:04;;;;;;;20.90;12.57;;;;;;;5.00;100.00;103176.47;5092202;28;20024;-58
2023/12/18 01:36:29;;;;;;;24.77;12.68;;;;;;;4.98;100.00;103167.69;5112503;28;20506;-58
2023/12/18 01:38:55;;;;;;;26.33;13.15;;;;;;;4.96;100.00;103179.09;5098602;27;20590;-58
2023/12/18 01:41:23;;;;;;;19.60;12.10;;;;;;;4.95;100.00;103167.69;5112612;28;20065;-58
2023/12/18 01:43:48;;;;;;;19.25;12.60;;;;;;;4.97;100.00;103171.22;5110006;28;20240;-58
2023/12/18 01:46:24;;;;;;;20.13;11.38;;;;;;;5.00;100.00;103165.91;5095296;27;20537;-58
2023/12/18 01:48:50;;;;;;;20.77;12.95;;;;;;;5.01;100.00;103177.34;5112303;28;20505;-58
2023/12/18 01:51:16;;;;;;;20.25;11.82;;;;;;;5.07;100.00;103174.69;5115050;27;20030;-58
2023/12/18 01:53:49;;;;;;;27.45;12.32;;;;;;;5.07;100.00;103173.81;5079508;27;20023;-58
2023/12/18 01:56:17;;;;;;;23.67;12.90;;;;;;;5.04;100.00;103169.44;5113473;27;20023;-59
2023/12/18 01:58:44;;;;;;;27.95;12.20;;;;;;;5.07;100.00;103177.31;5113708;27;20023;-58
2023/12/18 02:01:11;;;;;;;17.30;11.25;;;;;;;5.10;100.00;103172.03;5113518;27;20019;-58
2023/12/18 02:03:38;;;;;;;24.70;12.80;;;;;;;5.01;100.00;103159.75;5115416;27;20039;-58
2023/12/18 02:06:05;;;;;;;24.20;13.75;;;;;;;5.08;100.00;103168.53;5112214;27;20024;-58
2023/12/18 02:08:32;;;;;;;22.25;13.77;;;;;;;5.11;100.00;103149.19;5111559;28;20382;-58
2023/12/18 02:10:58;;;;;;;26.73;13.30;;;;;;;5.01;100.00;103141.28;5093911;28;20024;-58
2023/12/18 02:13:24;;;;;;;20.02;12.90;;;;;;;5.13;100.00;103161.47;5096518;28;20351;-58
2023/12/18 02:15:49;;;;;;;22.98;13.20;;;;;;;5.10;100.00;103161.50;5095618;28;20130;-58
2023/12/18 02:18:14;;;;;;;26.42;13.43;;;;;;;5.11;100.00;103162.38;5113063;27;20552;-58
2023/12/18 02:20:43;;;;;;;24.98;13.02;;;;;;;5.12;100.00;103157.09;5111635;27;20019;-58
2023/12/18 02:23:09;;;;;;;23.23;12.63;;;;;;;4.95;100.00;103132.53;5111357;27;20019;-58
2023/12/18 02:25:35;;;;;;;25.13;12.88;;;;;;;5.09;100.00;103159.75;5111979;28;20032;-58
2023/12/18 02:28:03;;;;;;;23.98;12.57;;;;;;;5.09;100.00;103153.56;5092527;28;20090;-58
2023/12/18 02:30:31;;;;;;;28.30;13.00;;;;;;;5.12;100.00;103156.22;5097066;27;20026;-58
2023/12/18 02:32:56;;;;;;;20.38;11.73;;;;;;;5.09;100.00;103154.47;5108539;28;20024;-58
2023/12/18 02:35:21;;;;;;;25.85;13.20;;;;;;;5.08;100.00;103152.69;5111657;27;20068;-58
2023/12/18 02:37:47;;;;;;;21.05;13.02;;;;;;;5.10;100.00;103150.06;5114490;27;20027;-58
2023/12/18 02:40:12;;;;;;;28.00;13.68;;;;;;;5.13;100.00;103155.34;5093201;28;20122;-58
2023/12/18 02:42:38;;;;;;;27.20;13.00;;;;;;;4.98;100.00;103122.84;5111328;28;20027;-58
2023/12/18 02:45:04;;;;;;;26.85;13.05;;;;;;;5.10;100.00;103148.31;5112480;27;20102;-58
2023/12/18 02:47:29;;;;;;;22.58;13.73;;;;;;;5.13;100.00;103139.50;5096049;28;20494;-58
2023/12/18 02:49:55;;;;;;;26.70;12.95;;;;;;;5.09;100.00;103141.28;5094976;28;20107;-58
2023/12/18 02:52:20;;;;;;;26.85;13.75;;;;;;;5.13;100.00;103143.03;5111422;28;20046;-58
2023/12/18 02:54:47;;;;;;;21.67;12.93;;;;;;;5.07;100.00;103128.97;5112716;27;20074;-58
2023/12/18 02:57:13;;;;;;;24.00;12.75;;;;;;;5.12;100.00;103141.28;5110163;28;20041;-58
2023/12/18 02:59:38;;;;;;;27.75;13.25;;;;;;;5.13;100.00;103137.75;5111760;28;20023;-58
2023/12/18 03:02:04;;;;;;;19.40;13.35;;;;;;;5.12;100.00;103127.22;5092467;28;20019;-58
2023/12/18 03:04:29;;;;;;;24.73;12.57;;;;;;;5.12;100.00;103129.84;5114213;27;20075;-58
2023/12/18 03:06:55;;;;;;;22.17;13.35;;;;;;;5.12;100.00;103114.91;5093748;28;20072;-58
2023/12/18 03:09:20;;;;;;;23.42;13.60;;;;;;;5.12;100.00;103125.44;5092655;28;20489;-58
2023/12/18 03:11:47;;;;;;;23.10;13.65;;;;;;;5.12;100.00;103104.34;5093166;27;20015;-58
2023/12/18 03:14:14;;;;;;;27.45;13.70;;;;;;;5.00;100.00;103100.00;5114679;28;20540;-58
2023/12/18 03:16:42;;;;;;;23.38;13.68;;;;;;;5.08;100.00;103123.69;5109123;28;20051;-58
2023/12/18 03:19:08;;;;;;;25.60;13.68;;;;;;;5.09;100.00;103114.91;5111825;28;20076;-58
2023/12/18 03:21:33;;;;;;;12.75;8.75;;;;;;;5.09;100.00;103112.28;5112011;28;20050;-58
2023/12/18 03:23:59;;;;;;;20.23;12.55;;;;;;;5.03;100.00;103122.84;5111943;28;20027;-58
2023/12/18 03:26:24;;;;;;;26.92;13.38;;;;;;;5.03;100.00;103116.66;5120284;27;20474;-58
2023/12/18 03:28:52;;;;;;;19.08;10.73;;;;;;;5.03;100.00;103111.41;5112727;28;20023;-58
2023/12/18 03:31:18;;;;;;;25.70;13.20;;;;;;;5.04;100.00;103110.53;5113726;27;20031;-58
2023/12/18 03:33:43;;;;;;;28.33;13.20;;;;;;;5.07;100.00;103107.88;5095576;27;20025;-58
2023/12/18 03:36:09;;;;;;;26.83;14.05;;;;;;;5.04;100.00;103107.91;5096459;28;20122;-58
2023/12/18 03:38:34;;;;;;;23.95;13.82;;;;;;;5.07;100.00;103107.88;5098786;28;20034;-58
2023/12/18 03:41:00;;;;;;;25.98;13.07;;;;;;;5.06;100.00;103114.00;5115181;28;20024;-58
2023/12/18 03:43:28;;;;;;;26.33;13.48;;;;;;;5.03;100.00;103103.47;5097839;28;20412;-58
2023/12/18 03:45:53;;;;;;;23.20;13.93;;;;;;;5.12;100.00;103114.91;5116584;27;20059;-58
2023/12/18 03:48:21;;;;;;;23.85;12.98;;;;;;;5.00;100.00;103107.91;5098198;28;20426;-58
2023/12/18 03:50:46;;;;;;;25.63;14.02;;;;;;;5.07;100.00;103110.53;5096920;28;20502;-58
2023/12/18 03:53:13;;;;;;;27.25;14.02;;;;;;;5.05;100.00;103118.41;5114035;28;20039;-58
2023/12/18 03:55:38;;;;;;;26.65;12.95;;;;;;;5.07;100.00;103121.94;5115376;27;20031;-58
2023/12/18 03:58:04;;;;;;;20.02;12.95;;;;;;;5.06;100.00;103128.09;5096139;28;20019;-58
2023/12/18 04:00:30;;;;;;;24.05;14.40;;;;;;;5.07;100.00;103121.06;5117308;27;20138;-58
2023/12/18 04:02:55;;;;;;;32.67;14.57;;;;;;;5.10;100.00;103129.84;5099006;28;20119;-58
2023/12/18 04:05:23;;;;;;;20.52;10.68;;;;;;;5.07;100.00;103121.06;5114412;27;20028;-58
2023/12/18 04:07:49;;;;;;;20.65;12.85;;;;;;;5.14;100.00;103126.28;5112055;27;20020;-58
2023/12/18 04:10:14;;;;;;;31.55;13.63;;;;;;;5.10;100.00;103121.06;5115542;27;20076;-58
2023/12/18 04:12:42;;;;;;;24.52;13.52;;;;;;;5.09;100.00;103119.28;5098223;28;20166;-58
2023/12/18 04:15:09;;;;;;;31.27;15.05;;;;;;;5.07;100.00;103111.41;5114388;27;20023;-58
2023/12/18 04:17:34;;;;;;;26.88;13.75;;;;;;;5.09;100.00;103107.00;5096636;28;20461;-58
2023/12/18 04:20:02;;;;;;;35.15;14.25;;;;;;;5.12;100.00;103108.75;5095723;28;20106;-58
2023/12/18 04:22:28;;;;;;;35.97;15.32;;;;;;;5.13;100.00;103107.84;5123393;27;20016;-58
2023/12/18 04:24:53;;;;;;;35.78;14.82;;;;;;;5.07;100.00;103099.97;5113654;28;20538;-58
2023/12/18 04:27:19;;;;;;;22.60;13.27;;;;;;;5.13;100.00;103107.84;5114817;27;20076;-58
2023/12/18 04:29:44;;;;;;;28.77;15.32;;;;;;;5.09;100.00;103096.44;5114119;27;20486;-58
2023/12/18 04:32:09;;;;;;;26.17;13.98;;;;;;;5.09;100.00;103101.72;5095456;28;20110;-59
2023/12/18 04:34:35;;;;;;;31.90;14.00;;;;;;;5.14;100.00;103110.47;5097745;28;20019;-58
2023/12/18 04:37:00;;;;;;;24.45;13.15;;;;;;;5.11;100.00;103110.47;5112511;28;20039;-58
2023/12/18 04:39:25;;;;;;;21.85;12.57;;;;;;;5.15;100.00;103104.34;5093930;28;20110;-58
2023/12/18 04:41:51;;;;;;;28.70;14.20;;;;;;;5.13;100.00;103106.09;5114957;28;20099;-58
2023/12/18 04:44:19;;;;;;;31.85;14.18;;;;;;;5.05;100.00;103088.53;5112184;28;20027;-58
2023/12/18 04:46:44;;;;;;;21.33;14.18;;;;;;;5.10;100.00;103097.31;5094472;28;20023;-58
2023/12/18 04:49:09;;;;;;;29.70;13.32;;;;;;;5.12;100.00;103107.00;5093982;28;20037;-58
2023/12/18 04:51:35;;;;;;;30.33;14.45;;;;;;;5.04;100.00;103089.44;5095751;28;20389;-58
2023/12/18 04:54:01;;;;;;;26.77;13.40;;;;;;;5.09;100.00;103095.53;5111799;28;20043;-58
2023/12/18 04:56:26;;;;;;;26.30;14.05;;;;;;;5.10;100.00;103098.19;5094089;28;20374;-58
2023/12/18 04:58:52;;;;;;;27.27;13.95;;;;;;;5.05;100.00;103075.34;5114088;28;20023;-58
2023/12/18 05:01:18;;;;;;;23.63;12.07;;;;;;;5.15;100.00;103095.56;5094315;28;20110;-58
2023/12/18 05:03:43;;;;;;;29.40;13.90;;;;;;;5.05;100.00;103086.78;5114278;28;20123;-58
2023/12/18 05:06:22;;;;;;;23.10;12.88;;;;;;;5.05;100.00;103085.91;5095800;28;20058;-58
2023/12/18 05:08:48;;;;;;;29.63;15.63;;;;;;;5.04;100.00;103087.66;5111720;28;20045;-59
2023/12/18 05:11:19;;;;;;;24.42;13.40;;;;;;;5.07;100.00;103099.97;5097722;28;20076;-58
2023/12/18 05:13:45;;;;;;;23.63;14.10;;;;;;;5.06;100.00;103104.38;5112276;28;20023;-58
2023/12/18 05:16:13;;;;;;;25.65;14.85;;;;;;;5.09;100.00;103104.38;5096107;28;20035;-58
2023/12/18 05:18:38;;;;;;;32.13;15.65;;;;;;;5.07;100.00;103089.41;5093708;28;20023;-58
2023/12/18 05:21:04;;;;;;;28.15;14.75;;;;;;;5.07;100.00;103087.66;5096841;28;20047;-58
2023/12/18 05:23:29;;;;;;;29.35;14.80;;;;;;;5.08;100.00;103081.47;5093994;28;20024;-58
2023/12/18 05:25:55;;;;;;;33.67;16.33;;;;;;;5.01;100.00;103067.44;5093581;28;20046;-58
2023/12/18 05:28:21;;;;;;;30.65;14.20;;;;;;;5.03;100.00;103071.84;5098093;28;20492;-58
2023/12/18 05:30:46;;;;;;;27.33;14.63;;;;;;;5.11;100.00;103084.09;5093696;28;20553;-58
2023/12/18 05:33:14;;;;;;;29.70;15.38;;;;;;;5.10;100.00;103089.41;5115601;28;20059;-58
2023/12/18 05:35:39;;;;;;;30.58;14.65;;;;;;;5.08;100.00;103085.88;5072789;27;1130258;-59
2023/12/18 05:38:07;;;;;;;24.45;14.43;;;;;;;5.10;100.00;103100.81;5096443;28;20408;-58
2023/12/18 05:40:33;;;;;;;22.45;14.48;;;;;;;5.08;100.00;103088.53;5112957;27;20031;-58
2023/12/18 05:43:01;;;;;;;31.67;15.10;;;;;;;5.11;100.00;103099.06;5079298;27;20036;-58
2023/12/18 05:45:27;;;;;;;39.90;16.35;;;;;;;5.10;100.00;103102.59;5112955;27;20098;-58
2023/12/18 05:47:52;;;;;;;30.15;13.35;;;;;;;5.10;100.00;103107.88;5095417;27;20543;-58
2023/12/18 05:50:17;;;;;;;36.05;15.38;;;;;;;5.14;100.00;103104.31;5097607;28;20478;-58
2023/12/18 05:52:43;;;;;;;34.60;15.88;;;;;;;5.17;100.00;103107.81;5113700;27;20500;-58
2023/12/18 05:55:09;;;;;;;32.95;15.45;;;;;;;5.12;100.00;103101.72;5111008;28;20035;-58
2023/12/18 05:57:36;;;;;;;27.13;14.95;;;;;;;5.12;100.00;103093.78;5094320;28;20030;-58
2023/12/18 06:00:01;;;;;;;32.65;15.32;;;;;;;5.11;100.00;103101.69;5112051;28;20477;-58
2023/12/18 06:02:26;;;;;;;30.73;15.07;;;;;;;5.06;100.00;103085.91;5115269;27;20071;-58
2023/12/18 06:04:52;;;;;;;23.50;13.63;;;;;;;5.12;100.00;103090.28;5112234;28;20055;-58
2023/12/18 06:07:17;;;;;;;25.48;13.68;;;;;;;5.18;100.00;103091.13;5113266;27;20035;-58
2023/12/18 06:09:45;;;;;;;21.45;12.20;;;;;;;5.17;100.00;103096.41;5093114;28;20502;-58
2023/12/18 06:12:10;;;;;;;23.90;14.55;;;;;;;5.14;100.00;103094.66;5112181;27;20028;-58
2023/12/18 06:14:38;;;;;;;33.40;15.73;;;;;;;5.15;100.00;103092.91;5090995;28;20471;-58
2023/12/18 06:17:04;;;;;;;32.63;15.73;;;;;;;5.14;100.00;103097.28;5113926;27;20024;-58
2023/12/18 06:19:29;;;;;;;26.98;14.50;;;;;;;5.17;100.00;103096.41;5094996;28;20034;-58
2023/12/18 06:21:55;;;;;;;39.17;13.93;;;;;;;5.19;100.00;103092.88;5116802;27;20035;-58
2023/12/18 06:24:20;;;;;;;27.85;15.10;;;;;;;5.18;100.00;103091.13;5090909;28;20051;-58
2023/12/18 06:26:45;;;;;;;27.63;14.23;;;;;;;5.20;100.00;103088.47;5113332;27;20023;-58
2023/12/18 06:29:11;;;;;;;30.60;14.93;;;;;;;5.22;100.00;103092.84;5111581;28;20035;-59
2023/12/18 06:31:39;;;;;;;31.05;15.23;;;;;;;5.24;100.00;103099.00;5088880;28;20062;-58
2023/12/18 06:34:04;;;;;;;30.58;15.57;;;;;;;5.21;100.00;103100.78;5096294;27;20629;-58
2023/12/18 06:36:30;;;;;;;39.10;16.48;;;;;;;5.22;100.00;103094.63;5099266;28;20063;-58
2023/12/18 06:38:55;;;;;;;24.08;14.80;;;;;;;5.24;100.00;103090.22;5112480;27;20085;-58
2023/12/18 06:41:21;;;;;;;30.63;14.85;;;;;;;5.18;100.00;103087.63;5092913;28;20034;-58
2023/12/18 06:43:46;;;;;;;25.42;13.40;;;;;;;5.23;100.00;103081.44;5096990;27;20041;-58
2023/12/18 06:46:11;;;;;;;26.88;14.23;;;;;;;5.27;100.00;103095.50;5116028;27;20054;-58
2023/12/18 06:48:42;;;;;;;23.88;12.73;;;;;;;5.24;100.00;103088.47;5093248;28;20030;-58
2023/12/18 06:51:11;;;;;;;31.88;15.82;;;;;;;5.25;100.00;103091.97;5112655;27;20031;-58
2023/12/18 06:53:36;;;;;;;27.70;14.57;;;;;;;5.20;100.00;103093.75;5093676;28;20436;-58
2023/12/18 06:56:05;;;;;;;28.10;14.25;;;;;;;5.20;100.00;103088.47;5111788;28;20032;-58
2023/12/18 06:58:40;;;;;;;23.73;13.25;;;;;;;5.22;100.00;103090.22;5114435;27;20474;-58
2023/12/18 07:01:05;;;;;;;30.05;16.17;;;;;;;5.12;100.00;103074.47;5095460;28;20032;-58
2023/12/18 07:03:33;;;;;;;28.40;15.43;;;;;;;5.17;100.00;103080.56;5088754;28;20020;-58
2023/12/18 07:05:58;;;;;;;35.50;15.43;;;;;;;5.22;100.00;103090.22;5111906;27;20122;-58
2023/12/18 07:08:24;;;;;;;35.40;16.50;;;;;;;5.20;100.00;103084.06;5094909;28;20111;-58
2023/12/18 07:10:49;;;;;;;37.05;15.80;;;;;;;5.19;100.00;103090.22;5112103;28;20496;-58
2023/12/18 07:13:15;;;;;;;27.05;15.20;;;;;;;5.25;100.00;103094.59;5094925;28;20035;-58
2023/12/18 07:15:40;;;;;;;25.20;13.65;;;;;;;5.26;100.00;103091.06;5098477;28;20024;-58
2023/12/18 07:18:07;;;;;;;26.88;13.32;;;;;;;5.30;100.00;103095.47;5092836;28;20040;-58
2023/12/18 07:20:33;;;;;;;31.25;13.32;;;;;;;5.25;100.00;103091.97;5096071;28;20063;-58
2023/12/18 07:22:58;;;;;;;28.50;15.43;;;;;;;5.30;100.00;103095.47;5092362;28;20066;-58
2023/12/18 07:25:23;;;;;;;29.30;15.70;;;;;;;5.26;100.00;103099.00;5110824;28;20038;-58
2023/12/18 07:27:49;;;;;;;28.55;13.98;;;;;;;5.36;100.00;103100.72;5110578;28;20031;-58
2023/12/18 07:30:15;;;;;;;36.03;15.15;;;;;;;5.28;100.00;103104.28;5094157;28;20035;-58
2023/12/18 07:32:42;;;;;;;25.98;14.88;;;;;;;5.30;100.00;103108.66;5093723;28;20114;-58
2023/12/18 07:35:08;;;;;;;17.60;10.45;;;;;;;5.38;100.00;103113.88;5114019;28;20047;-58
2023/12/18 07:37:33;;;;;;;39.67;14.60;;;;;;;5.28;100.00;103106.91;5112924;28;20397;-58
2023/12/18 07:39:59;;;;;;;21.88;12.45;;;;;;;5.31;100.00;103105.13;5093252;28;20414;-58
2023/12/18 07:42:25;;;;;;;29.60;13.88;;;;;;;5.30;100.00;103100.75;5112869;28;20035;-58
2023/12/18 07:44:52;;;;;;;33.50;15.35;;;;;;;5.26;100.00;103099.00;5114530;28;20027;-58
2023/12/18 07:47:17;;;;;;;31.70;15.30;;;;;;;5.28;100.00;103104.28;5096801;28;20027;-58
2023/12/18 07:49:42;;;;;;;28.50;15.07;;;;;;;5.30;100.00;103111.31;5110668;28;20458;-58
2023/12/18 07:52:08;;;;;;;31.30;14.65;;;;;;;5.32;100.00;103104.25;5110571;28;20036;-58
2023/12/18 07:54:34;;;;;;;29.50;16.05;;;;;;;5.27;100.00;103095.50;5111234;28;20138;-58
2023/12/18 07:56:59;;;;;;;30.75;15.40;;;;;;;5.33;100.00;103098.09;5112622;28;20046;-58
2023/12/18 07:59:25;;;;;;;30.73;16.02;;;;;;;5.32;100.00;103095.44;5092348;28;20428;-58
2023/12/18 08:01:51;;;;;;;35.90;16.23;;;;;;;5.34;100.00;103101.59;5114506;28;20425;-58
2023/12/18 08:04:16;;;;;;;26.38;14.27;;;;;;;5.18;100.00;103082.34;5116712;28;20072;-58
2023/12/18 08:06:41;;;;;;;31.23;14.80;;;;;;;5.31;100.00;103102.50;5110122;28;20035;-58
2023/12/18 08:09:07;;;;;;;36.47;15.50;;;;;;;5.32;100.00;103093.69;5092534;28;20027;-58
2023/12/18 08:11:36;;;;;;;27.20;15.38;;;;;;;5.35;100.00;103095.44;5110647;28;20036;-58
2023/12/18 08:14:01;;;;;;;33.40;14.13;;;;;;;5.46;100.00;103080.44;5112775;28;20073;-58
2023/12/18 08:16:26;;;;;;;31.75;15.13;;;;;;;5.37;100.00;103076.06;5095086;28;20485;-58
2023/12/18 08:18:54;;;;;;;35.42;15.50;;;;;;;5.34;100.00;103081.38;5124482;27;20109;-58
2023/12/18 08:21:20;;;;;;;31.42;14.95;;;;;;;5.36;100.00;103073.47;5127259;27;20023;-58
2023/12/18 08:23:45;;;;;;;35.35;15.18;;;;;;;5.36;100.00;103073.47;5135637;27;20484;-58
2023/12/18 08:26:11;;;;;;;35.15;16.75;;;;;;;5.40;100.00;103077.81;5131261;27;20107;-58
2023/12/18 08:28:46;;;;;;;34.72;15.32;;;;;;;5.34;100.00;103068.19;5115281;28;20023;-58
2023/12/18 08:31:12;;;;;;;26.15;14.00;;;;;;;5.42;100.00;103076.06;5124932;27;20538;-58
2023/12/18 08:33:41;;;;;;;27.85;15.00;;;;;;;5.42;100.00;103082.22;5109167;27;20023;-58
2023/12/18 08:36:06;;;;;;;32.27;15.37;;;;;;;5.49;100.00;103068.97;5115234;27;20040;-58
2023/12/18 08:38:32;;;;;;;34.97;16.27;;;;;;;5.54;100.00;103073.34;5103577;27;20525;-58
2023/12/18 08:40:57;;;;;;;32.85;15.82;;;;;;;5.51;100.00;103077.78;5095110;28;20394;-58
2023/12/18 08:43:23;;;;;;;33.97;15.63;;;;;;;5.52;100.00;103077.75;5114120;28;20020;-58
2023/12/18 08:45:48;;;;;;;30.17;14.88;;;;;;;5.54;100.00;103080.41;5104506;28;20023;-58
2023/12/18 08:48:16;;;;;;;31.30;16.13;;;;;;;5.47;100.00;103064.59;5095894;28;20136;-58
2023/12/18 08:50:42;;;;;;;30.27;15.27;;;;;;;5.43;100.00;103061.97;5096094;28;20397;-58
2023/12/18 08:53:07;;;;;;;36.75;15.52;;;;;;;5.45;100.00;103063.72;5095431;28;20047;-58
2023/12/18 08:55:38;;;;;;;31.90;16.02;;;;;;;5.55;100.00;103068.94;5095615;28;20546;-58
2023/12/18 08:58:04;;;;;;;36.35;15.80;;;;;;;5.51;100.00;103064.56;5113996;28;20019;-58
2023/12/18 09:00:31;;;;;;;23.90;12.82;;;;;;;5.54;100.00;103065.44;5096035;28;20065;-59
2023/12/18 09:02:58;;;;;;;27.05;14.70;;;;;;;5.53;100.00;103068.97;5114015;28;20098;-58
2023/12/18 09:05:24;;;;;;;38.33;15.77;;;;;;;5.54;100.00;103061.91;5104879;28;20011;-59
2023/12/18 09:07:49;;;;;;;24.85;13.95;;;;;;;5.56;100.00;103066.31;5113703;28;20103;-58
2023/12/18 09:10:17;;;;;;;28.88;16.73;;;;;;;5.57;100.00;103059.25;5095868;28;20088;-58
2023/12/18 09:12:43;;;;;;;28.50;15.30;;;;;;;5.58;100.00;103061.88;5117720;27;20057;-60
2023/12/18 09:15:11;;;;;;;34.38;14.98;;;;;;;5.61;100.00;103061.84;5113591;28;20435;-58
2023/12/18 09:17:38;;;;;;;21.92;12.82;;;;;;;5.68;100.00;103055.66;5121577;27;20050;-58
2023/12/18 09:20:06;;;;;;;30.02;15.77;;;;;;;5.66;100.00;103054.78;5123408;27;20065;-58
2023/12/18 09:22:35;;;;;;;33.80;14.65;;;;;;;5.70;100.00;103060.91;5113876;27;20462;-58
2023/12/18 09:25:01;;;;;;;31.02;14.88;;;;;;;5.72;100.00;103060.91;5095554;28;20050;-58
2023/12/18 09:27:26;;;;;;;34.40;16.35;;;;;;;5.74;100.00;103051.22;5118213;27;20434;-58
2023/12/18 09:29:51;;;;;;;32.70;14.45;;;;;;;5.75;100.00;103060.88;5117540;27;20019;-58
2023/12/18 09:32:19;;;;;;;35.72;16.60;;;;;;;5.74;100.00;103064.44;5119730;27;20027;-58
2023/12/18 09:34:45;;;;;;;36.10;15.52;;;;;;;5.76;100.00;103071.44;5103616;27;20088;-58
2023/12/18 09:37:10;;;;;;;35.65;14.45;;;;;;;5.78;100.00;103071.44;5114998;27;20081;-58
2023/12/18 09:39:40;;;;;;;24.42;13.40;;;;;;;5.92;100.00;103075.72;5112567;27;20389;-58
2023/12/18 09:42:05;;;;;;;32.38;14.52;;;;;;;5.83;100.00;103075.78;5114824;27;20088;-58
2023/12/18 09:44:31;;;;;;;29.15;15.65;;;;;;;5.80;100.00;103069.66;5094866;28;20390;-58
2023/12/18 09:46:59;;;;;;;31.83;14.52;;;;;;;5.79;100.00;103076.69;5104512;28;20042;-58
2023/12/18 09:49:27;;;;;;;19.05;11.80;;;;;;;5.94;100.00;103072.22;5112212;28;20023;-58
2023/12/18 09:52:11;;;;;;;28.92;16.02;;;;;;;5.80;100.00;103070.53;5118682;27;20076;-58
2023/12/18 09:54:39;;;;;;;31.55;15.18;;;;;;;5.76;100.00;103065.28;5113063;27;20103;-58
2023/12/18 09:57:07;;;;;;;26.35;13.43;;;;;;;5.79;100.00;103055.56;5095019;28;20358;-58
2023/12/18 09:59:33;;;;;;;32.42;16.02;;;;;;;5.75;100.00;103056.47;5118005;27;20019;-58
2023/12/18 10:01:59;;;;;;;19.75;10.90;;;;;;;5.87;100.00;103063.44;5099073;28;20497;-58
2023/12/18 10:04:24;;;;;;;33.58;16.13;;;;;;;5.75;100.00;103040.63;5117414;27;20031;-58
2023/12/18 10:06:53;;;;;;;31.52;14.65;;;;;;;5.81;100.00;103058.19;5097702;28;20019;-58
2023/12/18 10:09:19;;;;;;;27.00;13.95;;;;;;;5.76;100.00;103054.72;5113990;27;20026;-58
2023/12/18 10:11:48;;;;;;;25.65;13.55;;;;;;;5.79;100.00;103060.84;5117280;27;20028;-58
2023/12/18 10:14:16;;;;;;;33.22;15.32;;;;;;;5.75;100.00;103058.25;5114944;27;20095;-58
2023/12/18 10:16:42;;;;;;;31.02;14.23;;;;;;;5.72;100.00;103047.72;5113064;28;20080;-57
2023/12/18 10:19:09;;;;;;;29.38;14.50;;;;;;;5.85;100.00;103060.81;5112498;27;20128;-58
2023/12/18 10:21:37;;;;;;;26.88;13.57;;;;;;;5.89;100.00;103053.75;5116287;27;20388;-58
2023/12/18 10:24:04;;;;;;;31.83;14.70;;;;;;;5.77;100.00;103059.13;5119190;27;20466;-58
2023/12/18 10:26:30;;;;;;;32.47;15.35;;;;;;;5.81;100.00;103052.94;5112521;28;20047;-58
2023/12/18 10:28:55;;;;;;;35.85;16.52;;;;;;;5.75;100.00;103052.97;5114349;27;20028;-58
2023/12/18 10:31:21;;;;;;;30.88;14.65;;;;;;;5.76;100.00;103054.72;5113210;27;20058;-59
2023/12/18 10:33:46;;;;;;;32.65;15.20;;;;;;;5.83;100.00;103054.66;5094762;28;20134;-58
2023/12/18 10:36:15;;;;;;;27.17;13.63;;;;;;;5.72;100.00;103058.28;5100190;28;20546;-58
2023/12/18 10:38:41;;;;;;;28.90;15.98;;;;;;;5.71;100.00;103054.75;5114181;27;20391;-58
2023/12/18 10:41:11;;;;;;;26.15;13.10;;;;;;;5.74;100.00;103038.91;5113130;27;20790;-58
2023/12/18 10:43:40;;;;;;;31.77;15.63;;;;;;;5.72;100.00;103034.50;5111497;28;20076;-58
2023/12/18 10:46:08;;;;;;;21.75;12.70;;;;;;;5.76;100.00;103031.81;5095648;28;20031;-58
2023/12/18 10:48:34;;;;;;;22.88;12.07;;;;;;;5.72;100.00;103027.47;5095006;28;20031;-58
2023/12/18 10:51:01;;;;;;;27.55;15.95;;;;;;;5.57;100.00;103006.47;5129325;27;20401;-58
2023/12/18 10:53:27;;;;;;;26.23;14.82;;;;;;;5.68;100.00;103016.06;5113824;27;20462;-58
2023/12/18 10:55:54;;;;;;;30.65;14.40;;;;;;;5.73;100.00;103013.38;5114581;27;20023;-58
2023/12/18 10:58:20;;;;;;;28.55;14.38;;;;;;;5.77;100.00;103015.13;5114251;27;20113;-58
2023/12/18 11:00:45;;;;;;;23.33;13.45;;;;;;;5.68;100.00;102997.56;5114567;27;20109;-58
2023/12/18 11:03:13;;;;;;;34.55;16.23;;;;;;;5.71;100.00;102996.69;5103252;28;20031;-58
2023/12/18 11:05:45;;;;;;;27.30;14.30;;;;;;;5.74;100.00;103001.06;5112264;28;20028;-58